createdAt,value
2023-02-21T00:00:05.205Z,98646.72
2023-02-21T00:03:16.028Z,98645.94
2023-02-21T00:06:16.396Z,98646.50
2023-02-21T00:09:22.957Z,98656.59
2023-02-21T00:12:23.689Z,98653.47
2023-02-21T00:15:31.000Z,98652.75
2023-02-21T00:18:31.236Z,98656.81
2023-02-21T00:21:38.971Z,98659.81
2023-02-21T00:24:39.672Z,98669.50
2023-02-21T00:27:46.974Z,98670.31
2023-02-21T00:30:47.671Z,98675.28
2023-02-21T00:33:54.962Z,98678.06
2023-02-21T00:36:55.314Z,98681.13
2023-02-21T00:40:02.009Z,98682.53
2023-02-21T00:43:08.954Z,98687.03
2023-02-21T00:46:10.276Z,98697.06
2023-02-21T00:49:17.816Z,98698.34
2023-02-21T00:52:19.072Z,98707.75
2023-02-21T00:55:26.570Z,98717.78
2023-02-21T00:58:27.013Z,98715.81
2023-02-21T01:01:33.879Z,98719.53
2023-02-21T01:04:50.022Z,98716.59
2023-02-21T01:07:56.900Z,98721.84
2023-02-21T01:10:57.690Z,98729.28
2023-02-21T01:14:05.011Z,98732.09
2023-02-21T01:17:12.985Z,98742.59
2023-02-21T01:20:19.974Z,98739.06
2023-02-21T01:23:20.346Z,98743.84
2023-02-21T01:26:26.978Z,98753.88
2023-02-21T01:29:27.520Z,98757.78
2023-02-21T01:32:33.997Z,98764.75
2023-02-21T01:35:34.718Z,98760.88
2023-02-21T01:38:42.016Z,98765.06
2023-02-21T01:41:42.710Z,98761.50
2023-02-21T01:45:03.980Z,98775.47
2023-02-21T01:48:04.688Z,98774.97
2023-02-21T01:51:12.271Z,98773.03
2023-02-21T01:54:13.706Z,98783.75
2023-02-21T01:57:22.954Z,98783.91
2023-02-21T02:00:26.186Z,98797.03
2023-02-21T02:03:42.022Z,98798.56
2023-02-21T02:06:49.211Z,98792.06
2023-02-21T02:09:50.244Z,98806.59
2023-02-21T02:12:45.406Z,98804.94
2023-02-21T02:15:59.002Z,98808.97
2023-02-21T02:18:59.659Z,98813.72
2023-02-21T02:22:06.979Z,98811.25
2023-02-21T02:25:04.229Z,98818.09
2023-02-21T02:28:01.948Z,98816.50
2023-02-21T02:31:24.329Z,98824.97
2023-02-21T02:34:35.936Z,98826.88
2023-02-21T02:37:35.008Z,98830.63
2023-02-21T02:40:40.264Z,98826.75
2023-02-21T02:43:29.961Z,98832.47
2023-02-21T02:46:18.262Z,98840.78
2023-02-21T02:49:27.944Z,98838.38
2023-02-21T02:52:15.236Z,98839.50
2023-02-21T02:55:10.967Z,98838.81
2023-02-21T02:58:00.908Z,98842.53
2023-02-21T03:00:56.220Z,98844.25
2023-02-21T03:04:22.916Z,98854.16
2023-02-21T03:07:58.957Z,98872.00
2023-02-21T03:11:04.347Z,98866.94
2023-02-21T03:13:51.951Z,98864.81
2023-02-21T03:16:52.272Z,98873.19
2023-02-21T03:19:55.046Z,98875.97
2023-02-21T03:22:45.737Z,98883.03
2023-02-21T03:25:30.978Z,98888.28
2023-02-21T03:28:14.333Z,98886.63
2023-02-21T03:31:07.972Z,98887.78
2023-02-21T03:33:57.185Z,98881.88
2023-02-21T03:36:40.974Z,98884.72
2023-02-21T03:39:24.083Z,98880.91
2023-02-21T03:42:13.038Z,98888.22
2023-02-21T03:44:55.241Z,98885.16
2023-02-21T03:47:43.957Z,98894.75
2023-02-21T03:50:33.256Z,98886.84
2023-02-21T03:53:15.964Z,98899.03
2023-02-21T03:56:05.192Z,98894.91
2023-02-21T03:59:04.913Z,98900.88
2023-02-21T04:01:53.316Z,98905.84
2023-02-21T04:04:44.981Z,98900.47
2023-02-21T04:07:30.241Z,98910.41
2023-02-21T04:10:21.938Z,98907.16
2023-02-21T04:13:05.206Z,98911.38
2023-02-21T04:15:57.984Z,98913.53
2023-02-21T04:18:43.189Z,98915.34
2023-02-21T04:21:31.999Z,98921.09
2023-02-21T04:24:17.205Z,98917.53
2023-02-21T04:27:07.072Z,98917.28
2023-02-21T04:29:54.216Z,98913.81
2023-02-21T04:32:42.992Z,98912.81
2023-02-21T04:35:32.995Z,98915.72
2023-02-21T04:38:31.332Z,98916.63
2023-02-21T04:41:14.584Z,98917.69
2023-02-21T04:44:03.988Z,98923.16
2023-02-21T04:46:52.970Z,98920.81
2023-02-21T04:49:41.265Z,98915.97
2023-02-21T04:52:23.948Z,98927.50
2023-02-21T04:55:06.401Z,98927.72
2023-02-21T04:57:54.876Z,98922.50
2023-02-21T05:00:43.250Z,98923.34
2023-02-21T05:03:37.933Z,98925.94
2023-02-21T05:06:31.236Z,98927.88
2023-02-21T05:09:12.896Z,98920.56
2023-02-21T05:12:01.217Z,98933.66
2023-02-21T05:14:43.996Z,98917.44
2023-02-21T05:17:32.283Z,98921.88
2023-02-21T05:20:18.997Z,98928.59
2023-02-21T05:23:13.383Z,98924.00
2023-02-21T05:25:56.016Z,98918.22
2023-02-21T05:28:46.262Z,98921.38
2023-02-21T05:31:28.930Z,98919.53
2023-02-21T05:34:20.794Z,98923.59
2023-02-21T05:37:03.941Z,98922.16
2023-02-21T05:39:52.293Z,98919.16
2023-02-21T05:42:34.974Z,98926.56
2023-02-21T05:45:23.262Z,98925.31
2023-02-21T05:48:08.015Z,98929.53
2023-02-21T05:50:56.215Z,98918.81
2023-02-21T05:53:37.931Z,98908.59
2023-02-21T05:56:22.450Z,98918.72
2023-02-21T05:59:10.990Z,98914.31
2023-02-21T06:02:00.318Z,98918.28
2023-02-21T06:04:41.970Z,98921.50
2023-02-21T06:07:30.153Z,98918.88
2023-02-21T06:10:13.050Z,98921.97
2023-02-21T06:13:01.199Z,98913.50
2023-02-21T06:15:43.014Z,98908.22
2023-02-21T06:18:31.321Z,98906.06
2023-02-21T06:21:14.189Z,98903.09
2023-02-21T06:24:03.281Z,98900.41
2023-02-21T06:26:46.032Z,98897.75
2023-02-21T06:29:34.481Z,98895.19
2023-02-21T06:32:16.910Z,98894.88
2023-02-21T06:34:58.817Z,98889.97
2023-02-21T06:37:48.027Z,98890.41
2023-02-21T06:40:37.229Z,98886.63
2023-02-21T06:43:19.950Z,98885.94
2023-02-21T06:46:08.205Z,98885.59
2023-02-21T06:48:50.022Z,98874.84
2023-02-21T06:51:49.294Z,98876.06
2023-02-21T06:54:30.951Z,98873.31
2023-02-21T06:57:19.672Z,98868.56
2023-02-21T07:00:02.885Z,98868.09
2023-02-21T07:02:58.764Z,98863.69
2023-02-21T07:05:54.076Z,98862.50
2023-02-21T07:08:43.321Z,98858.50
2023-02-21T07:11:26.925Z,98859.03
2023-02-21T07:14:16.275Z,98854.97
2023-02-21T07:16:58.957Z,98850.34
2023-02-21T07:19:47.349Z,98848.50
2023-02-21T07:22:33.965Z,98846.63
2023-02-21T07:25:25.245Z,98837.38
2023-02-21T07:28:07.904Z,98831.28
2023-02-21T07:30:56.336Z,98828.34
2023-02-21T07:33:38.950Z,98826.66
2023-02-21T07:36:27.216Z,98819.88
2023-02-21T07:39:09.041Z,98814.94
2023-02-21T07:41:57.292Z,98813.88
2023-02-21T07:44:39.962Z,98800.72
2023-02-21T07:47:28.245Z,98806.47
2023-02-21T07:50:11.039Z,98803.25
2023-02-21T07:53:00.863Z,98797.81
2023-02-21T07:55:44.292Z,98784.75
2023-02-21T07:58:33.495Z,98783.47
2023-02-21T08:01:16.132Z,98777.31
2023-02-21T08:04:10.793Z,98770.84
2023-02-21T08:07:00.007Z,98767.84
2023-02-21T08:09:43.209Z,98767.97
2023-02-21T08:12:31.927Z,98766.53
2023-02-21T08:15:14.287Z,98762.47
2023-02-21T08:18:02.945Z,98756.88
2023-02-21T08:20:45.236Z,98755.94
2023-02-21T08:23:33.897Z,98755.94
2023-02-21T08:26:17.277Z,98746.78
2023-02-21T08:29:04.973Z,98744.72
2023-02-21T08:31:49.324Z,98744.41
2023-02-21T08:34:38.081Z,98734.69
2023-02-21T08:37:21.337Z,98735.03
2023-02-21T08:40:10.049Z,98731.16
2023-02-21T08:42:56.241Z,98721.72
2023-02-21T08:45:45.071Z,98713.69
2023-02-21T08:48:27.284Z,98708.25
2023-02-21T08:51:16.202Z,98713.16
2023-02-21T08:53:58.330Z,98711.44
2023-02-21T08:56:46.962Z,98705.94
2023-02-21T08:59:31.534Z,98713.56
2023-02-21T09:02:26.017Z,98704.69
2023-02-21T09:05:34.802Z,98700.06
2023-02-21T09:08:23.940Z,98699.94
2023-02-21T09:11:06.222Z,98701.06
2023-02-21T09:13:55.369Z,98698.78
2023-02-21T09:16:37.241Z,98711.78
2023-02-21T09:19:25.938Z,98700.38
2023-02-21T09:22:08.233Z,98702.00
2023-02-21T09:24:56.960Z,98698.41
2023-02-21T09:27:39.325Z,98704.94
2023-02-21T09:30:32.104Z,98694.66
2023-02-21T09:33:14.261Z,98698.66
2023-02-21T09:36:03.256Z,98695.06
2023-02-21T09:38:46.198Z,98691.47
2023-02-21T09:41:35.960Z,98689.78
2023-02-21T09:44:26.713Z,98675.75
2023-02-21T09:47:17.936Z,98682.81
2023-02-21T09:50:07.241Z,98678.59
2023-02-21T09:53:06.227Z,98668.81
2023-02-21T09:55:56.047Z,98670.00
2023-02-21T09:58:44.378Z,98667.97
2023-02-21T10:01:49.940Z,98673.09
2023-02-21T10:05:11.838Z,98673.03
2023-02-21T10:08:16.890Z,98661.84
2023-02-21T10:11:06.374Z,98671.75
2023-02-21T10:14:22.937Z,98664.28
2023-02-21T10:17:21.306Z,98666.47
2023-02-21T10:20:24.077Z,98656.44
2023-02-21T10:23:09.154Z,98655.44
2023-02-21T10:26:04.003Z,98652.38
2023-02-21T10:28:46.248Z,98655.53
2023-02-21T10:31:37.039Z,98659.88
2023-02-21T10:34:32.270Z,98652.91
2023-02-21T10:37:48.962Z,98661.13
2023-02-21T10:41:00.407Z,98659.50
2023-02-21T10:43:56.944Z,98651.97
2023-02-21T10:46:51.184Z,98656.38
2023-02-21T10:50:15.986Z,98657.59
2023-02-21T10:52:59.753Z,98657.06
2023-02-21T10:55:48.975Z,98647.03
2023-02-21T10:58:35.231Z,98643.00
2023-02-21T11:01:32.928Z,98642.84
2023-02-21T11:04:45.820Z,98639.34
2023-02-21T11:07:34.983Z,98640.56
2023-02-21T11:10:41.424Z,98643.13
2023-02-21T11:13:30.984Z,98642.63
2023-02-21T11:16:19.236Z,98641.00
2023-02-21T11:19:15.990Z,98638.69
2023-02-21T11:22:06.078Z,98647.69
2023-02-21T11:25:08.054Z,98645.03
2023-02-21T11:27:50.169Z,98645.38
2023-02-21T11:30:43.142Z,98644.13
2023-02-21T11:33:30.194Z,98644.94
2023-02-21T11:36:24.897Z,98644.50
2023-02-21T11:39:18.245Z,98649.97
2023-02-21T11:42:11.077Z,98652.44
2023-02-21T11:44:55.210Z,98641.34
2023-02-21T11:48:00.982Z,98645.50
2023-02-21T11:50:50.237Z,98647.81
2023-02-21T11:53:50.887Z,98655.41
2023-02-21T11:57:08.888Z,98650.38
2023-02-21T12:00:09.672Z,98655.88
2023-02-21T12:03:18.954Z,98651.66
2023-02-21T12:07:07.940Z,98652.28
2023-02-21T12:10:05.296Z,98646.94
2023-02-21T12:13:02.316Z,98650.78
2023-02-21T12:16:03.295Z,98644.31
2023-02-21T12:19:01.015Z,98646.00
2023-02-21T12:22:11.281Z,98650.69
2023-02-21T12:25:11.965Z,98658.25
2023-02-21T12:28:18.937Z,98656.47
2023-02-21T12:32:15.958Z,98657.34
2023-02-21T12:35:23.383Z,98660.38
2023-02-21T12:38:18.923Z,98658.78
2023-02-21T12:41:38.434Z,98659.34
2023-02-21T12:44:23.861Z,98666.91
2023-02-21T12:47:32.245Z,98668.53
2023-02-21T12:50:21.973Z,98666.97
2023-02-21T12:53:20.253Z,98674.81
2023-02-21T12:56:25.978Z,98674.28
2023-02-21T12:59:46.465Z,98672.69
2023-02-21T13:02:49.097Z,98680.28
2023-02-21T13:05:50.092Z,98683.22
2023-02-21T13:09:08.921Z,98684.81
2023-02-21T13:11:59.752Z,98696.44
2023-02-21T13:15:17.972Z,98694.28
2023-02-21T13:18:14.291Z,98687.53
2023-02-21T13:21:20.912Z,98692.38
2023-02-21T13:24:39.262Z,98702.09
2023-02-21T13:28:06.956Z,98701.53
2023-02-21T13:30:57.006Z,98703.16
2023-02-21T13:34:07.302Z,98712.56
2023-02-21T13:36:53.869Z,98712.84
2023-02-21T13:39:44.454Z,98716.88
2023-02-21T13:42:28.939Z,98722.47
2023-02-21T13:45:31.306Z,98720.31
2023-02-21T13:48:16.916Z,98715.69
2023-02-21T13:51:08.350Z,98717.84
2023-02-21T13:54:18.005Z,98720.19
2023-02-21T13:57:06.233Z,98717.19
2023-02-21T13:59:49.012Z,98724.44
2023-02-21T14:02:38.263Z,98729.75
2023-02-21T14:05:21.015Z,98731.06
2023-02-21T14:08:16.181Z,98736.66
2023-02-21T14:11:10.929Z,98739.53
2023-02-21T14:14:07.291Z,98745.44
2023-02-21T14:17:00.901Z,98742.44
2023-02-21T14:20:00.580Z,98752.34
2023-02-21T14:22:44.012Z,98749.72
2023-02-21T14:25:34.426Z,98747.34
2023-02-21T14:28:52.867Z,98760.28
2023-02-21T14:32:06.166Z,98756.53
2023-02-21T14:34:57.986Z,98756.72
2023-02-21T14:38:12.117Z,98765.78
2023-02-21T14:41:23.971Z,98763.00
2023-02-21T14:44:21.903Z,98763.47
2023-02-21T14:47:21.029Z,98775.97
2023-02-21T14:50:21.351Z,98776.69
2023-02-21T14:53:46.036Z,98778.28
2023-02-21T14:56:43.271Z,98781.19
2023-02-21T14:59:47.984Z,98769.94
2023-02-21T15:03:11.374Z,98786.59
2023-02-21T15:06:21.926Z,98795.41
2023-02-21T15:09:21.288Z,98798.09
2023-02-21T15:12:03.941Z,98798.31
2023-02-21T15:15:01.356Z,98796.69
2023-02-21T15:17:42.967Z,98806.50
2023-02-21T15:20:32.353Z,98805.94
2023-02-21T15:23:26.940Z,98809.63
2023-02-21T15:26:31.154Z,98814.94
2023-02-21T15:29:14.864Z,98807.63
2023-02-21T15:32:05.323Z,98816.38
2023-02-21T15:34:48.905Z,98811.25
2023-02-21T15:37:34.193Z,98816.72
2023-02-21T15:40:31.940Z,98813.81
2023-02-21T15:43:37.234Z,98814.19
2023-02-21T15:46:26.053Z,98811.47
2023-02-21T15:49:15.278Z,98817.63
2023-02-21T15:51:57.962Z,98815.28
2023-02-21T15:54:41.014Z,98810.66
2023-02-21T15:57:38.861Z,98817.63
2023-02-21T16:00:28.501Z,98825.09
2023-02-21T16:03:50.904Z,98824.50
2023-02-21T16:06:39.982Z,98820.78
2023-02-21T16:09:44.869Z,98817.22
2023-02-21T16:12:30.264Z,98823.16
2023-02-21T16:15:29.937Z,98830.66
2023-02-21T16:18:19.133Z,98826.50
2023-02-21T16:21:17.157Z,98824.16
2023-02-21T16:24:21.218Z,98824.97
2023-02-21T16:27:22.903Z,98837.50
2023-02-21T16:30:07.103Z,98835.88
2023-02-21T16:32:58.858Z,98833.66
2023-02-21T16:35:41.918Z,98839.19
2023-02-21T16:38:33.972Z,98840.25
2023-02-21T16:41:24.379Z,98837.00
2023-02-21T16:44:06.900Z,98846.44
2023-02-21T16:46:58.337Z,98847.50
2023-02-21T16:49:40.982Z,98835.69
2023-02-21T16:52:29.413Z,98846.53
2023-02-21T16:55:11.924Z,98845.13
2023-02-21T16:58:05.196Z,98851.81
2023-02-21T17:00:48.099Z,98845.41
2023-02-21T17:03:37.398Z,98853.75
2023-02-21T17:06:27.059Z,98847.84
2023-02-21T17:09:16.440Z,98844.34
2023-02-21T17:11:58.926Z,98851.94
2023-02-21T17:14:41.927Z,98851.03
2023-02-21T17:17:31.980Z,98849.31
2023-02-21T17:20:25.279Z,98853.53
2023-02-21T17:23:07.951Z,98857.38
2023-02-21T17:25:57.220Z,98859.44
2023-02-21T17:28:39.970Z,98860.25
2023-02-21T17:31:35.936Z,98862.25
2023-02-21T17:34:31.023Z,98859.06
2023-02-21T17:37:20.216Z,98864.00
2023-02-21T17:40:03.955Z,98856.44
2023-02-21T17:42:54.279Z,98858.69
2023-02-21T17:45:36.928Z,98862.28
2023-02-21T17:48:26.373Z,98861.94
2023-02-21T17:51:09.954Z,98864.16
2023-02-21T17:53:59.325Z,98865.44
2023-02-21T17:56:41.916Z,98868.50
2023-02-21T17:59:24.400Z,98870.25
2023-02-21T18:02:13.313Z,98862.09
2023-02-21T18:05:02.437Z,98880.28
2023-02-21T18:07:44.861Z,98886.22
2023-02-21T18:10:35.338Z,98877.81
2023-02-21T18:13:16.960Z,98892.47
2023-02-21T18:16:00.590Z,98891.19
2023-02-21T18:18:50.983Z,98880.78
2023-02-21T18:21:42.499Z,98879.19
2023-02-21T18:24:26.941Z,98883.13
2023-02-21T18:27:18.587Z,98880.00
2023-02-21T18:30:04.061Z,98878.72
2023-02-21T18:32:54.254Z,98883.84
2023-02-21T18:35:37.008Z,98872.41
2023-02-21T18:38:26.596Z,98877.09
2023-02-21T18:41:09.845Z,98876.31
2023-02-21T18:43:59.324Z,98880.63
2023-02-21T18:46:42.023Z,98873.06
2023-02-21T18:49:38.825Z,98871.31
2023-02-21T18:52:21.912Z,98871.69
2023-02-21T18:55:10.345Z,98870.13
2023-02-21T18:57:52.891Z,98870.13
2023-02-21T19:00:42.286Z,98872.59
2023-02-21T19:03:24.988Z,98880.03
2023-02-21T19:06:16.288Z,98875.47
2023-02-21T19:09:00.335Z,98878.16
2023-02-21T19:11:49.421Z,98883.03
2023-02-21T19:14:31.884Z,98879.88
2023-02-21T19:17:20.950Z,98878.47
2023-02-21T19:20:03.450Z,98872.53
2023-02-21T19:22:51.929Z,98870.09
2023-02-21T19:25:34.307Z,98866.25
2023-02-21T19:28:22.866Z,98872.28
2023-02-21T19:31:05.458Z,98858.56
2023-02-21T19:33:53.901Z,98865.16
2023-02-21T19:36:38.565Z,98863.91
2023-02-21T19:39:27.956Z,98855.53
2023-02-21T19:42:12.037Z,98852.84
2023-02-21T19:45:00.913Z,98856.78
2023-02-21T19:47:43.288Z,98861.19
2023-02-21T19:50:31.867Z,98860.16
2023-02-21T19:53:14.224Z,98860.00
2023-02-21T19:56:02.831Z,98859.19
2023-02-21T19:58:46.390Z,98860.69
2023-02-21T20:01:36.966Z,98850.00
2023-02-21T20:04:19.417Z,98847.56
2023-02-21T20:07:08.303Z,98845.31
2023-02-21T20:09:51.277Z,98842.91
2023-02-21T20:12:39.855Z,98844.16
2023-02-21T20:15:22.177Z,98836.81
2023-02-21T20:18:11.892Z,98834.16
2023-02-21T20:20:54.253Z,98830.66
2023-02-21T20:23:42.875Z,98831.13
2023-02-21T20:26:26.115Z,98834.03
2023-02-21T20:29:14.927Z,98826.28
2023-02-21T20:32:11.917Z,98822.56
2023-02-21T20:35:02.992Z,98827.56
2023-02-21T20:37:45.479Z,98819.75
2023-02-21T20:40:34.887Z,98819.19
2023-02-21T20:43:17.239Z,98815.09
2023-02-21T20:46:05.969Z,98816.94
2023-02-21T20:48:48.122Z,98811.25
2023-02-21T20:51:38.990Z,98812.41
2023-02-21T20:54:24.196Z,98812.22
2023-02-21T20:57:12.936Z,98806.03
2023-02-21T20:59:55.112Z,98810.81
2023-02-21T21:02:43.843Z,98805.91
2023-02-21T21:05:27.321Z,98810.97
2023-02-21T21:08:17.001Z,98807.53
2023-02-21T21:10:59.364Z,98797.75
2023-02-21T21:13:48.290Z,98806.69
2023-02-21T21:16:30.210Z,98795.72
2023-02-21T21:19:19.791Z,98796.81
2023-02-21T21:22:03.245Z,98789.78
2023-02-21T21:24:51.877Z,98797.31
2023-02-21T21:27:34.105Z,98789.22
2023-02-21T21:30:29.971Z,98791.19
2023-02-21T21:33:26.719Z,98798.25
2023-02-21T21:36:18.946Z,98799.34
2023-02-21T21:39:01.249Z,98796.75
2023-02-21T21:41:53.869Z,98795.72
2023-02-21T21:44:42.858Z,98788.22
2023-02-21T21:47:39.867Z,98788.91
2023-02-21T21:50:23.175Z,98787.78
2023-02-21T21:53:13.033Z,98781.72
2023-02-21T21:55:55.209Z,98779.00
2023-02-21T21:58:43.820Z,98781.63
2023-02-21T22:01:33.920Z,98784.59
2023-02-21T22:04:16.126Z,98789.06
2023-02-21T22:07:04.883Z,98787.06
2023-02-21T22:09:53.169Z,98783.59
2023-02-21T22:12:36.903Z,98788.41
2023-02-21T22:15:22.684Z,98776.19
2023-02-21T22:18:11.855Z,98783.81
2023-02-21T22:20:54.180Z,98781.66
2023-02-21T22:23:42.910Z,98771.03
2023-02-21T22:26:34.075Z,98778.09
2023-02-21T22:29:15.877Z,98780.41
2023-02-21T22:32:05.802Z,98780.41
2023-02-21T22:35:00.887Z,98779.22
2023-02-21T22:37:51.924Z,98772.34
2023-02-21T22:40:48.311Z,98778.34
2023-02-21T22:43:36.193Z,98774.84
2023-02-21T22:46:18.865Z,98776.25
2023-02-21T22:49:00.966Z,98773.81
2023-02-21T22:51:49.891Z,98774.69
2023-02-21T22:54:38.119Z,98777.81
2023-02-21T22:57:22.803Z,98783.59
2023-02-21T23:00:20.317Z,98782.94
2023-02-21T23:03:02.841Z,98786.41
2023-02-21T23:05:48.740Z,98786.25
2023-02-21T23:08:37.938Z,98786.53
2023-02-21T23:11:32.344Z,98779.28
2023-02-21T23:14:16.156Z,98777.19
2023-02-21T23:16:59.714Z,98782.59
2023-02-21T23:19:48.882Z,98778.75
2023-02-21T23:22:31.003Z,98785.78
2023-02-21T23:25:28.225Z,98774.28
2023-02-21T23:28:25.793Z,98782.97
2023-02-21T23:31:08.184Z,98778.44
2023-02-21T23:33:56.820Z,98777.69
2023-02-21T23:36:42.808Z,98787.91
2023-02-21T23:39:32.828Z,98783.81
2023-02-21T23:42:21.097Z,98785.09
2023-02-21T23:45:04.975Z,98785.34
2023-02-21T23:47:57.243Z,98788.66
2023-02-21T23:50:38.779Z,98786.88
2023-02-21T23:53:30.916Z,98789.44
2023-02-21T23:56:14.070Z,98801.25
2023-02-21T23:59:02.946Z,98799.03
